Time;durP1;ratioP1;P1;durP2;ratioP2;P2;SDS_P1;SDS_P2;PMS_P1;PMS_P2;Temp;Humidity;BMP_temperature;BMP_pressure;BME280_temperature;BME280_humidity;BME280_pressure;Samples;Min_cycle;Max_cycle;Signal;HPM_P1;HPM_P2
2022/11/20 00:01:29;;;;;;;;;;;;;;;-3.64;95.77;101231.16;4953412;28;20350;-56
2022/11/20 00:03:55;;;;;;;;;;;;;;;-3.66;96.95;101223.22;4952256;28;19965;-55
2022/11/20 00:06:21;;;;;;;;;;;;;;;-3.67;96.31;101224.25;4953617;28;19986;-55
2022/11/20 00:08:47;;;;;;;;;;;;;;;-3.65;95.40;101229.50;4952157;28;20009;-56
2022/11/20 00:11:14;;;;;;;;;;;;;;;-3.67;94.86;101226.16;4953190;28;19918;-56
2022/11/20 00:13:39;;;;;;;;;;;;;;;-3.68;95.40;101222.59;4953194;28;20294;-56
2022/11/20 00:16:05;;;;;;;;;;;;;;;-3.69;95.40;101215.53;4953470;28;19914;-56
2022/11/20 00:18:32;;;;;;;;;;;;;;;-3.70;95.61;101221.97;4952945;28;19995;-56
2022/11/20 00:21:09;;;;;;;;;;;;;;;-3.70;94.91;101215.72;4952960;28;19944;-54
2022/11/20 00:23:34;;;;;;;;;;;;;;;-3.71;95.13;101208.66;4953172;28;19996;-55
2022/11/20 00:26:03;;;;;;;;;;;;;;;-3.72;95.03;101215.94;4953585;29;20370;-55
2022/11/20 00:28:28;;;;;;;;;;;;;;;-3.72;95.02;101218.63;4953533;28;19938;-54
2022/11/20 00:30:59;;;;;;;;;;;;;;;-3.66;93.47;101222.41;4952941;28;19914;-55
2022/11/20 00:33:25;;;;;;;;;;;;;;;-3.67;94.65;101209.91;4953013;28;19915;-57
2022/11/20 00:35:50;;;;;;;;;;;;;;;-3.72;95.29;101201.56;4952817;28;19941;-55
2022/11/20 00:38:15;;;;;;;;;;;;;;;-3.74;94.42;101214.47;4953008;28;19915;-57
2022/11/20 00:40:40;;;;;;;;;;;;;;;-3.78;95.04;101212.16;4952988;29;19927;-56
2022/11/20 00:43:05;;;;;;;;;;;;;;;-3.81;95.27;101209.03;4952981;28;20268;-57
2022/11/20 00:45:31;;;;;;;;;;;;;;;-3.82;94.24;101208.19;4953033;28;20359;-57
2022/11/20 00:47:56;;;;;;;;;;;;;;;-3.88;96.56;101213.59;4949020;28;20053;-56
2022/11/20 00:50:21;;;;;;;;;;;;;;;-3.90;96.16;101205.66;4953201;28;19956;-56
2022/11/20 00:52:46;;;;;;;;;;;;;;;-3.85;94.59;101218.56;4953185;28;19918;-57
2022/11/20 00:55:11;;;;;;;;;;;;;;;-3.79;93.64;101215.91;4953090;28;19961;-57
2022/11/20 00:57:37;;;;;;;;;;;;;;;-3.81;94.22;101214.44;4953343;28;19915;-57
2022/11/20 01:00:02;;;;;;;;;;;;;;;-3.82;94.18;101205.47;4956954;28;20384;-58
2022/11/20 01:02:27;;;;;;;;;;;;;;;-3.83;94.23;101206.53;4956930;28;19914;-57
2022/11/20 01:04:52;;;;;;;;;;;;;;;-3.81;93.77;101209.03;4955255;29;19914;-58
2022/11/20 01:07:18;;;;;;;;;;;;;;;-3.82;93.72;101210.88;4956356;28;19914;-58
2022/11/20 01:09:43;;;;;;;;;;;;;;;-3.76;92.50;101218.22;4956460;28;19960;-58
2022/11/20 01:12:08;;;;;;;;;;;;;;;-3.77;93.40;101215.69;4956501;29;19915;-58
2022/11/20 01:14:33;;;;;;;;;;;;;;;-3.79;94.67;101223.19;4956376;28;19914;-57
2022/11/20 01:16:58;;;;;;;;;;;;;;;-3.78;93.38;101227.56;4956357;28;20274;-57
2022/11/20 01:19:23;;;;;;;;;;;;;;;-3.82;94.04;101221.69;4956335;29;20061;-57
2022/11/20 01:21:51;;;;;;;;;;;;;;;-3.87;95.47;101215.25;4956054;28;19918;-57
2022/11/20 01:24:17;;;;;;;;;;;;;;;-3.92;94.39;101211.28;4956175;28;19914;-59
2022/11/20 01:26:43;;;;;;;;;;;;;;;-3.93;94.55;101215.00;4956290;28;19922;-59
2022/11/20 01:29:12;;;;;;;;;;;;;;;-3.95;94.34;101214.38;4956082;28;19956;-57
2022/11/20 01:31:38;;;;;;;;;;;;;;;-3.97;94.86;101208.34;4956123;28;19918;-59
2022/11/20 01:34:04;;;;;;;;;;;;;;;-4.01;95.76;101207.06;4956422;28;20017;-59
2022/11/20 01:36:30;;;;;;;;;;;;;;;-4.03;94.77;101213.72;4956068;28;19914;-58
2022/11/20 01:38:57;;;;;;;;;;;;;;;-4.05;95.98;101202.25;4955994;28;19942;-58
2022/11/20 01:44:08;;;;;;;;;;;;;;;-4.10;94.88;101200.97;4956883;28;19979;-57
2022/11/20 01:46:38;;;;;;;;;;;;;;;-4.10;95.79;101202.88;4956171;28;20381;-57
2022/11/20 01:49:15;;;;;;;;;;;;;;;-4.12;95.12;101213.03;4952128;28;19941;-59
2022/11/20 01:51:43;;;;;;;;;;;;;;;-4.13;96.06;101214.91;4955610;29;20029;-56
2022/11/20 01:54:12;;;;;;;;;;;;;;;-4.15;96.50;101205.31;4955646;28;19961;-58
2022/11/20 01:56:40;;;;;;;;;;;;;;;-4.19;96.06;101204.88;4955583;28;19937;-57
2022/11/20 01:59:07;;;;;;;;;;;;;;;-4.20;96.71;101203.22;4955884;28;19914;-58
2022/11/20 02:01:32;;;;;;;;;;;;;;;-4.24;96.60;101204.66;4955587;28;20013;-57
2022/11/20 02:03:58;;;;;;;;;;;;;;;-4.26;96.44;101204.88;4955522;28;20009;-57
2022/11/20 02:06:25;;;;;;;;;;;;;;;-4.29;97.37;101197.16;4955649;28;19919;-58
2022/11/20 02:08:51;;;;;;;;;;;;;;;-4.32;96.72;101196.72;4955139;28;19925;-57
2022/11/20 02:11:16;;;;;;;;;;;;;;;-4.33;96.57;101214.78;4954072;28;19914;-57
2022/11/20 02:13:44;;;;;;;;;;;;;;;-4.34;96.63;101215.81;4955218;28;20070;-57
2022/11/20 02:16:18;;;;;;;;;;;;;;;-4.30;96.22;101216.28;4955378;28;19930;-57
2022/11/20 02:18:44;;;;;;;;;;;;;;;-4.29;96.28;101199.00;4983463;23;19926;-62
2022/11/20 02:21:17;;;;;;;;;;;;;;;-4.31;97.17;101201.91;4975539;28;19929;-62
2022/11/20 02:24:01;;;;;;;;;;;;;;;-4.34;97.21;101196.06;4975252;28;19914;-62
2022/11/20 02:26:28;;;;;;;;;;;;;;;-4.36;96.97;101196.28;4975086;28;19961;-62
2022/11/20 02:28:54;;;;;;;;;;;;;;;-4.41;99.07;101190.63;4974848;28;20293;-61
2022/11/20 02:31:19;;;;;;;;;;;;;;;-4.46;98.08;101188.50;4974664;28;20040;-62
2022/11/20 02:33:44;;;;;;;;;;;;;;;-4.47;97.57;101189.53;4974724;28;20437;-62
2022/11/20 02:36:11;;;;;;;;;;;;;;;-4.49;97.54;101185.38;4974469;28;19918;-62
2022/11/20 02:38:36;;;;;;;;;;;;;;;-4.49;98.96;101188.94;4974244;28;19964;-63
2022/11/20 02:41:01;;;;;;;;;;;;;;;-4.53;98.96;101186.81;4973820;28;19913;-63
2022/11/20 02:43:27;;;;;;;;;;;;;;;-4.57;98.64;101187.22;4973974;28;19914;-61
2022/11/20 02:45:52;;;;;;;;;;;;;;;-4.53;97.48;101205.72;4974191;28;19933;-62
2022/11/20 02:48:17;;;;;;;;;;;;;;;-4.51;96.57;101203.63;4971644;28;19921;-63
2022/11/20 02:50:43;;;;;;;;;;;;;;;-4.51;99.16;101200.94;4973973;28;19957;-63
2022/11/20 02:53:08;;;;;;;;;;;;;;;-4.53;99.63;101194.94;4974454;28;19936;-63
2022/11/20 02:55:33;;;;;;;;;;;;;;;-4.55;99.76;101189.69;4974243;28;20012;-59
2022/11/20 02:57:58;;;;;;;;;;;;;;;-4.55;98.70;101192.41;4973989;28;19918;-63
2022/11/20 03:00:24;;;;;;;;;;;;;;;-4.58;99.28;101188.25;4973940;28;19928;-62
2022/11/20 03:02:49;;;;;;;;;;;;;;;-4.60;99.94;101203.78;4973800;28;19914;-62
2022/11/20 03:05:15;;;;;;;;;;;;;;;-4.62;99.29;101189.66;4973756;28;19925;-62
2022/11/20 03:07:40;;;;;;;;;;;;;;;-4.64;99.26;101194.44;4973489;28;19914;-62
2022/11/20 03:10:05;;;;;;;;;;;;;;;-4.63;98.48;101193.41;4973641;28;19921;-62
2022/11/20 03:12:31;;;;;;;;;;;;;;;-4.63;98.62;101193.41;4973687;28;19918;-62
2022/11/20 03:14:56;;;;;;;;;;;;;;;-4.60;99.06;101184.06;4973659;28;20374;-62
2022/11/20 03:17:21;;;;;;;;;;;;;;;-4.58;100.00;101185.53;4972204;28;20012;-62
2022/11/20 03:19:46;;;;;;;;;;;;;;;-4.53;100.00;101182.25;4973616;28;19922;-62
2022/11/20 03:22:12;;;;;;;;;;;;;;;-4.49;100.00;101175.44;4973215;28;20353;-62
2022/11/20 03:24:37;;;;;;;;;;;;;;;-4.42;100.00;101178.16;4971920;28;19940;-62
2022/11/20 03:27:02;;;;;;;;;;;;;;;-4.36;100.00;101171.13;4973482;28;19918;-62
2022/11/20 03:29:27;;;;;;;;;;;;;;;-4.27;100.00;101162.69;4973268;28;19929;-62
2022/11/20 03:31:52;;;;;;;;;;;;;;;-4.23;100.00;101163.09;4972072;28;19968;-62
2022/11/20 03:34:17;;;;;;;;;;;;;;;-4.19;100.00;101147.31;4973441;28;20384;-62
2022/11/20 03:36:43;;;;;;;;;;;;;;;-4.18;100.00;101149.00;4973203;28;19918;-61
2022/11/20 03:39:08;;;;;;;;;;;;;;;-4.18;99.88;101155.22;4972042;28;20022;-62
2022/11/20 03:41:38;;;;;;;;;;;;;;;-4.12;98.15;101159.00;4973404;28;20351;-62
2022/11/20 03:44:04;;;;;;;;;;;;;;;-4.09;97.47;101159.41;4973340;28;19952;-62
2022/11/20 03:46:29;;;;;;;;;;;;;;;-4.05;97.72;101153.63;4973133;28;19918;-62
2022/11/20 03:48:54;;;;;;;;;;;;;;;-4.10;98.31;101156.94;4973485;28;20365;-62
2022/11/20 03:51:21;;;;;;;;;;;;;;;-4.11;97.65;101163.38;4970723;28;19969;-62
2022/11/20 03:53:47;;;;;;;;;;;;;;;-4.13;97.01;101150.06;4973243;28;19937;-62
2022/11/20 03:56:13;;;;;;;;;;;;;;;-4.18;98.87;101151.69;4972968;28;20302;-61
2022/11/20 03:58:39;;;;;;;;;;;;;;;-4.20;97.83;101156.47;4972980;28;19925;-61
2022/11/20 04:01:08;;;;;;;;;;;;;;;-4.20;97.27;101146.47;4972862;28;20329;-62
2022/11/20 04:03:34;;;;;;;;;;;;;;;-4.21;98.35;101147.53;4973019;28;19922;-61
2022/11/20 04:06:03;;;;;;;;;;;;;;;-4.25;98.43;101135.44;4972997;28;20433;-61
2022/11/20 04:08:29;;;;;;;;;;;;;;;-4.31;99.46;101133.56;4972828;28;19914;-61
2022/11/20 04:10:54;;;;;;;;;;;;;;;-4.40;100.00;101131.03;4973003;28;20227;-62
2022/11/20 04:13:19;;;;;;;;;;;;;;;-4.43;99.49;101133.25;4972917;28;19957;-61
2022/11/20 04:15:44;;;;;;;;;;;;;;;-4.46;99.55;101133.69;4972844;28;19922;-61
2022/11/20 04:18:10;;;;;;;;;;;;;;;-4.51;99.53;101136.97;4972671;28;19922;-61
2022/11/20 04:20:35;;;;;;;;;;;;;;;-4.53;99.42;101138.22;4971190;28;19922;-61
2022/11/20 04:23:00;;;;;;;;;;;;;;;-4.56;99.82;101136.72;4972863;28;19918;-61
2022/11/20 04:25:25;;;;;;;;;;;;;;;-4.61;99.92;101137.31;4972785;28;19918;-61
2022/11/20 04:27:50;;;;;;;;;;;;;;;-4.66;99.37;101133.53;4972785;28;20317;-61
2022/11/20 04:30:16;;;;;;;;;;;;;;;-4.68;100.00;101130.22;4972829;28;19918;-61
2022/11/20 04:32:41;;;;;;;;;;;;;;;-4.70;100.00;101135.81;4972227;28;19998;-61
2022/11/20 04:35:06;;;;;;;;;;;;;;;-4.71;100.00;101128.75;4971437;28;19992;-62
2022/11/20 04:37:32;;;;;;;;;;;;;;;-4.70;99.29;101128.56;4971658;28;19914;-62
2022/11/20 04:39:57;;;;;;;;;;;;;;;-4.68;99.27;101119.44;4972724;28;19922;-60
2022/11/20 04:42:28;;;;;;;;;;;;;;;-4.67;99.18;101121.91;4972747;28;19960;-61
2022/11/20 04:44:53;;;;;;;;;;;;;;;-4.67;99.42;101121.91;4973182;28;20025;-61
2022/11/20 04:47:19;;;;;;;;;;;;;;;-4.68;99.00;101124.81;4972935;28;20345;-61
2022/11/20 04:49:44;;;;;;;;;;;;;;;-4.69;99.01;101126.69;4970716;28;19922;-60
2022/11/20 04:52:09;;;;;;;;;;;;;;;-4.71;99.22;101123.34;4973152;28;19996;-61
2022/11/20 04:54:34;;;;;;;;;;;;;;;-4.72;99.36;101127.91;4973177;28;20370;-61
2022/11/20 04:56:59;;;;;;;;;;;;;;;-4.72;99.77;101127.06;4972980;28;19917;-61
2022/11/20 04:59:24;;;;;;;;;;;;;;;-4.70;98.83;101119.59;4972706;28;19929;-61
2022/11/20 05:01:50;;;;;;;;;;;;;;;-4.68;99.50;101124.81;4973017;28;19914;-63
2022/11/20 05:04:15;;;;;;;;;;;;;;;-4.66;99.43;101107.41;4972791;28;20412;-61
2022/11/20 05:06:40;;;;;;;;;;;;;;;-4.62;100.00;101107.81;4972347;28;20404;-62
2022/11/20 05:09:05;;;;;;;;;;;;;;;-4.61;100.00;101107.63;4972467;28;20377;-61
2022/11/20 05:11:31;;;;;;;;;;;;;;;-4.61;100.00;101104.09;4971944;28;19922;-62
2022/11/20 05:13:58;;;;;;;;;;;;;;;-4.62;100.00;101107.81;4972193;28;19914;-61
2022/11/20 05:16:24;;;;;;;;;;;;;;;-4.63;100.00;101106.16;4971951;28;19914;-62
2022/11/20 05:18:50;;;;;;;;;;;;;;;-4.65;100.00;101102.81;4972111;28;20037;-62
2022/11/20 05:21:15;;;;;;;;;;;;;;;-4.65;100.00;101102.81;4971779;28;19929;-61
2022/11/20 05:23:41;;;;;;;;;;;;;;;-4.65;99.85;101095.56;4972017;28;19961;-62
2022/11/20 05:26:08;;;;;;;;;;;;;;;-4.66;100.00;101102.00;4972261;28;20687;-61
2022/11/20 05:28:33;;;;;;;;;;;;;;;-4.66;99.82;101101.16;4972035;28;19983;-61
2022/11/20 05:31:06;;;;;;;;;;;;;;;-4.66;99.89;101099.28;4971991;28;20425;-61
2022/11/20 05:33:32;;;;;;;;;;;;;;;-4.67;99.94;101097.63;4972107;28;19921;-62
2022/11/20 05:36:00;;;;;;;;;;;;;;;-4.68;99.74;101095.94;4971941;28;19925;-61
2022/11/20 05:38:26;;;;;;;;;;;;;;;-4.69;99.58;101096.97;4972113;28;19988;-61
2022/11/20 05:40:51;;;;;;;;;;;;;;;-4.70;99.40;101098.88;4972235;28;20420;-61
2022/11/20 05:43:16;;;;;;;;;;;;;;;-4.68;98.51;101097.84;4972283;28;19914;-62
2022/11/20 05:45:41;;;;;;;;;;;;;;;-4.65;99.93;101094.72;4971673;28;19933;-62
2022/11/20 05:48:06;;;;;;;;;;;;;;;-4.62;100.00;101097.84;4975912;28;19993;-62
2022/11/20 05:50:31;;;;;;;;;;;;;;;-4.58;100.00;101103.72;4976251;28;19918;-61
2022/11/20 05:53:00;;;;;;;;;;;;;;;-4.53;99.87;101108.50;4976210;28;19924;-63
2022/11/20 05:55:25;;;;;;;;;;;;;;;-4.48;99.19;101106.84;4976180;28;19922;-63
2022/11/20 05:57:52;;;;;;;;;;;;;;;-4.42;98.98;101102.53;4975547;28;19925;-63
2022/11/20 06:00:17;;;;;;;;;;;;;;;-4.38;98.98;101107.31;4975585;28;20013;-62
2022/11/20 06:02:42;;;;;;;;;;;;;;;-4.31;99.10;101107.38;4975444;28;20009;-62
2022/11/20 06:05:08;;;;;;;;;;;;;;;-4.26;98.69;101122.97;4975245;28;20325;-62
2022/11/20 06:07:33;;;;;;;;;;;;;;;-4.19;99.40;101112.19;4975810;28;20378;-62
2022/11/20 06:09:58;;;;;;;;;;;;;;;-4.13;99.81;101117.63;4975330;28;19937;-63
2022/11/20 06:12:23;;;;;;;;;;;;;;;-4.07;99.86;101113.28;4975046;28;19937;-63
2022/11/20 06:14:48;;;;;;;;;;;;;;;-4.01;99.48;101125.13;4975099;28;20021;-62
2022/11/20 06:17:13;;;;;;;;;;;;;;;-4.05;99.83;101111.19;4974794;28;19914;-63
2022/11/20 06:19:39;;;;;;;;;;;;;;;-3.92;99.44;101121.25;4974932;28;20023;-62
2022/11/20 06:22:04;;;;;;;;;;;;;;;-3.86;99.49;101125.84;4974833;28;19918;-62
2022/11/20 06:24:29;;;;;;;;;;;;;;;-3.82;99.56;101129.78;4974683;28;20024;-62
2022/11/20 06:26:54;;;;;;;;;;;;;;;-3.78;99.35;101125.66;4974328;28;19928;-62
2022/11/20 06:29:19;;;;;;;;;;;;;;;-3.71;99.18;101125.66;4973749;28;19921;-62
2022/11/20 06:31:45;;;;;;;;;;;;;;;-3.63;98.73;101127.34;4973419;28;19922;-62
2022/11/20 06:34:10;;;;;;;;;;;;;;;-3.59;99.13;101112.38;4973510;28;19985;-62
2022/11/20 06:36:35;;;;;;;;;;;;;;;-3.56;99.48;101114.69;4973764;28;19917;-63
2022/11/20 06:39:01;;;;;;;;;;;;;;;-3.50;98.38;101111.16;4973685;28;19918;-61
2022/11/20 06:41:27;;;;;;;;;;;;;;;-3.47;98.55;101116.16;4971723;28;19921;-61
2022/11/20 06:43:53;;;;;;;;;;;;;;;-3.46;98.30;101123.22;4973725;28;19921;-62
2022/11/20 06:46:18;;;;;;;;;;;;;;;-3.46;99.08;101122.38;4972026;28;19914;-61
2022/11/20 06:48:44;;;;;;;;;;;;;;;-3.43;98.96;101121.13;4973391;28;19925;-62
2022/11/20 06:51:09;;;;;;;;;;;;;;;-3.41;98.39;101119.91;4973528;28;20014;-62
2022/11/20 06:53:35;;;;;;;;;;;;;;;-3.37;98.10;101109.50;4973327;28;20012;-62
2022/11/20 06:56:00;;;;;;;;;;;;;;;-3.32;98.66;101096.16;4971249;28;19926;-62
2022/11/20 06:58:26;;;;;;;;;;;;;;;-3.30;98.77;101099.50;4973050;28;19979;-61
2022/11/20 07:00:51;;;;;;;;;;;;;;;-3.26;98.26;101097.22;4973193;28;20344;-62
2022/11/20 07:03:17;;;;;;;;;;;;;;;-3.22;98.78;101096.59;4972806;28;19997;-62
2022/11/20 07:05:42;;;;;;;;;;;;;;;-3.20;98.94;101099.94;4973421;28;20037;-62
2022/11/20 07:08:08;;;;;;;;;;;;;;;-3.17;98.75;101095.97;4973441;28;20444;-62
2022/11/20 07:10:33;;;;;;;;;;;;;;;-3.16;98.96;101092.22;4973441;28;19918;-62
2022/11/20 07:12:59;;;;;;;;;;;;;;;-3.15;98.87;101086.59;4973357;28;19945;-63
2022/11/20 07:15:24;;;;;;;;;;;;;;;-3.12;98.60;101079.94;4972796;28;20349;-63
2022/11/20 07:17:50;;;;;;;;;;;;;;;-3.11;99.59;101092.41;4972519;28;19957;-66
2022/11/20 07:20:15;;;;;;;;;;;;;;;-3.10;99.66;101094.09;4972728;28;19933;-63
2022/11/20 07:22:40;;;;;;;;;;;;;;;-3.08;99.37;101092.00;4972503;28;19925;-62
2022/11/20 07:25:06;;;;;;;;;;;;;;;-3.07;99.90;101082.84;4972690;28;19988;-62
2022/11/20 07:27:32;;;;;;;;;;;;;;;-3.03;99.48;101085.97;4973604;28;19922;-62
2022/11/20 07:29:57;;;;;;;;;;;;;;;-3.02;100.00;101087.63;4973561;28;19930;-61
2022/11/20 07:32:22;;;;;;;;;;;;;;;-3.03;100.00;101097.63;4961787;28;20409;-63
2022/11/20 07:34:48;;;;;;;;;;;;;;;-3.00;100.00;101085.56;4983012;28;19925;-61
2022/11/20 07:37:14;;;;;;;;;;;;;;;-2.94;100.00;101089.31;4990663;28;19918;-63
2022/11/20 07:39:39;;;;;;;;;;;;;;;-2.87;99.89;101073.88;4991772;28;20357;-61
2022/11/20 07:42:05;;;;;;;;;;;;;;;-2.80;100.00;101077.38;4992836;28;19948;-63
2022/11/20 07:44:30;;;;;;;;;;;;;;;-2.73;100.00;101071.97;4991920;28;19914;-64
2022/11/20 07:46:56;;;;;;;;;;;;;;;-2.68;100.00;101078.41;4993133;28;19925;-61
2022/11/20 07:49:21;;;;;;;;;;;;;;;-2.64;100.00;101078.81;4991536;28;19920;-61
2022/11/20 07:51:46;;;;;;;;;;;;;;;-2.61;100.00;101080.25;4991799;28;19914;-61
2022/11/20 07:54:12;;;;;;;;;;;;;;;-2.60;100.00;101080.06;4991459;28;19914;-62
2022/11/20 07:56:37;;;;;;;;;;;;;;;-2.56;100.00;101085.91;4991072;28;20443;-62
2022/11/20 07:59:03;;;;;;;;;;;;;;;-2.55;100.00;101091.09;4991352;28;19920;-62
2022/11/20 08:01:28;;;;;;;;;;;;;;;-2.49;100.00;101097.53;4991823;28;19920;-62
2022/11/20 08:03:53;;;;;;;;;;;;;;;-2.43;100.00;101095.84;4992325;28;19920;-62
2022/11/20 08:06:19;;;;;;;;;;;;;;;-2.37;100.00;101093.13;4992428;28;20320;-61
2022/11/20 08:08:45;;;;;;;;;;;;;;;-2.28;99.44;101103.72;4990030;28;20349;-62
2022/11/20 08:14:12;;;;;;;;;;;;;;;-2.13;100.00;101087.19;4992541;28;19983;-61
2022/11/20 08:16:41;;;;;;;;;;;;;;;-2.05;99.31;101081.53;4992277;28;19918;-62
2022/11/20 08:19:06;;;;;;;;;;;;;;;-1.95;99.65;101079.19;4988195;28;19928;-62
2022/11/20 08:21:32;;;;;;;;;;;;;;;-1.84;99.24;101071.41;4963774;28;19933;-62
2022/11/20 08:23:57;;;;;;;;;;;;;;;-1.76;100.00;101073.84;4968002;28;20478;-62
2022/11/20 08:26:23;;;;;;;;;;;;;;;-1.70;99.64;101072.97;4973082;28;20282;-62
2022/11/20 08:28:48;;;;;;;;;;;;;;;-1.63;100.00;101067.50;4962959;28;19962;-62
2022/11/20 08:31:13;;;;;;;;;;;;;;;-1.58;98.88;101067.66;4967450;28;19961;-64
2022/11/20 08:33:38;;;;;;;;;;;;;;;-1.52;99.17;101065.97;4970933;28;20424;-61
2022/11/20 08:36:04;;;;;;;;;;;;;;;-1.48;98.66;101072.63;4973324;28;19914;-62
2022/11/20 08:38:30;;;;;;;;;;;;;;;-1.46;99.06;101074.06;4972872;28;20501;-62
2022/11/20 08:43:40;;;;;;;;;;;;;;;-1.41;98.71;101073.41;4973131;28;19921;-63
2022/11/20 08:46:05;;;;;;;;;;;;;;;-1.37;98.85;101071.06;4972809;28;20013;-62
2022/11/20 08:48:30;;;;;;;;;;;;;;;-1.34;99.33;101078.78;4972448;28;19914;-61
2022/11/20 08:50:57;;;;;;;;;;;;;;;-1.29;99.04;101081.66;4972646;28;19914;-62
2022/11/20 08:53:22;;;;;;;;;;;;;;;-1.26;98.98;101079.31;4972308;28;19969;-61
2022/11/20 08:55:48;;;;;;;;;;;;;;;-1.20;99.30;101074.91;4966126;28;19922;-61
2022/11/20 08:58:13;;;;;;;;;;;;;;;-1.14;98.76;101074.03;4953502;28;19919;-58
2022/11/20 09:00:38;;;;;;;;;;;;;;;-1.08;99.75;101068.75;4953378;29;20326;-61
2022/11/20 09:03:03;;;;;;;;;;;;;;;-1.05;99.96;101076.47;4952123;28;19914;-62
2022/11/20 09:05:28;;;;;;;;;;;;;;;-0.99;100.00;101067.41;4953272;28;20005;-61
2022/11/20 09:07:57;;;;;;;;;;;;;;;-0.93;100.00;101068.41;4953504;28;19941;-61
2022/11/20 09:10:22;;;;;;;;;;;;;;;-0.87;99.19;101060.19;4953689;28;19915;-63
2022/11/20 09:12:51;;;;;;;;;;;;;;;-0.80;99.04;101055.50;4951871;28;20264;-60
2022/11/20 09:15:17;;;;;;;;;;;;;;;-0.74;99.11;101048.34;4953813;28;19993;-61
2022/11/20 09:17:42;;;;;;;;;;;;;;;-0.70;98.82;101056.88;4961864;28;20382;-61
2022/11/20 09:20:08;;;;;;;;;;;;;;;-0.64;98.69;101051.38;4968031;28;20009;-61
2022/11/20 09:22:39;;;;;;;;;;;;;;;-0.58;99.48;101052.38;4967844;28;19918;-62
2022/11/20 09:25:05;;;;;;;;;;;;;;;-0.53;99.87;101049.78;4970851;28;19922;-62
2022/11/20 09:27:30;;;;;;;;;;;;;;;-0.48;98.78;101052.66;4952341;28;19919;-62
2022/11/20 09:29:55;;;;;;;;;;;;;;;-0.44;99.23;101052.19;4960203;28;19929;-62
2022/11/20 09:32:20;;;;;;;;;;;;;;;-0.44;99.87;101044.88;4973865;28;20471;-62
2022/11/20 09:34:46;;;;;;;;;;;;;;;-0.41;99.86;101035.44;4975540;28;19996;-63
2022/11/20 09:37:11;;;;;;;;;;;;;;;-0.38;99.56;101037.72;4975375;28;19914;-61
2022/11/20 09:39:38;;;;;;;;;;;;;;;-0.35;99.87;101045.38;4975044;28;19917;-61
2022/11/20 09:42:12;;;;;;;;;;;;;;;-0.29;100.00;101044.50;4975125;28;19914;-62
2022/11/20 09:44:52;;;;;;;;;;;;;;;-0.23;98.53;101020.97;4974477;28;19940;-63
2022/11/20 09:47:27;;;;;;;;;;;;;;;-0.18;98.37;101016.50;4975021;28;20410;-62
2022/11/20 09:50:02;;;;;;;;;;;;;;;-0.13;98.40;101021.25;4975327;28;20398;-63
2022/11/20 09:52:36;;;;;;;;;;;;;;;-0.07;99.35;101022.22;4975021;28;20032;-63
2022/11/20 09:55:03;;;;;;;;;;;;;;;-0.06;99.56;101022.00;4973923;28;19964;-63
2022/11/20 09:57:36;;;;;;;;;;;;;;;-0.03;99.28;101021.53;4974925;28;19940;-63
2022/11/20 10:00:04;;;;;;;;;;;;;;;0.01;98.61;101016.44;4974691;28;19921;-61
2022/11/20 10:02:35;;;;;;;;;;;;;;;0.05;98.42;101020.38;4974425;28;20330;-62
2022/11/20 10:05:12;;;;;;;;;;;;;;;0.10;98.66;101017.78;4974594;28;20046;-63
2022/11/20 10:08:01;;;;;;;;;;;;;;;0.14;99.36;101015.47;4974440;28;20013;-63
2022/11/20 10:10:26;;;;;;;;;;;;;;;0.20;98.88;101010.94;4974441;28;19918;-62
2022/11/20 10:13:06;;;;;;;;;;;;;;;0.24;99.14;101004.00;4974274;28;19941;-62
2022/11/20 10:15:31;;;;;;;;;;;;;;;0.27;99.05;101000.81;4972782;28;19937;-63
2022/11/20 10:18:08;;;;;;;;;;;;;;;0.32;98.86;100995.50;4972505;28;20365;-63
2022/11/20 10:20:34;;;;;;;;;;;;;;;0.38;98.93;100989.09;4974303;28;19918;-63
2022/11/20 10:23:21;;;;;;;;;;;;;;;0.41;99.07;100982.38;4973654;28;19918;-62
2022/11/20 10:25:56;;;;;;;;;;;;;;;0.43;98.78;100970.19;4973604;28;19925;-61
2022/11/20 10:28:27;;;;;;;;;;;;;;;0.49;99.49;100964.84;4974058;28;19914;-62
2022/11/20 10:30:57;;;;;;;;;;;;;;;0.52;99.04;100959.75;4973143;28;20359;-62
2022/11/20 10:33:23;;;;;;;;;;;;;;;0.55;98.69;100947.59;4973923;28;19921;-62
2022/11/20 10:36:08;;;;;;;;;;;;;;;0.56;99.90;100939.19;4974128;28;19950;-63
2022/11/20 10:38:37;;;;;;;;;;;;;;;0.62;98.72;100932.78;4973022;28;19950;-63
2022/11/20 10:43:48;;;;;;;;;;;;;;;0.79;100.00;100918.47;4973331;28;19940;-62
2022/11/20 10:46:23;;;;;;;;;;;;;;;0.85;100.00;100908.50;4974535;28;20338;-62
2022/11/20 10:48:48;;;;;;;;;;;;;;;0.88;100.00;100903.41;4974622;28;20020;-62
2022/11/20 10:51:32;;;;;;;;;;;;;;;0.96;100.00;100899.47;4974586;28;20041;-62
2022/11/20 10:53:57;;;;;;;;;;;;;;;1.04;100.00;100887.38;4975178;28;20004;-62
2022/11/20 10:56:27;;;;;;;;;;;;;;;1.11;99.76;100884.50;4974838;28;20024;-62
2022/11/20 10:59:13;;;;;;;;;;;;;;;1.17;99.57;100884.38;4975033;28;19921;-63
2022/11/20 11:01:42;;;;;;;;;;;;;;;1.30;99.03;100876.97;4973484;28;19921;-64
2022/11/20 11:04:23;;;;;;;;;;;;;;;1.36;99.78;100874.09;4974805;28;20016;-62
2022/11/20 11:06:49;;;;;;;;;;;;;;;1.44;98.77;100880.22;4974665;28;19921;-61
2022/11/20 11:09:19;;;;;;;;;;;;;;;1.50;98.93;100873.81;4973140;28;19913;-63
2022/11/20 11:11:44;;;;;;;;;;;;;;;1.56;99.12;100867.38;4973897;28;20399;-63
2022/11/20 11:14:14;;;;;;;;;;;;;;;1.55;98.34;100860.25;4973351;28;20448;-60
2022/11/20 11:16:55;;;;;;;;;;;;;;;1.55;98.66;100861.09;4973230;28;20455;-60
2022/11/20 11:19:21;;;;;;;;;;;;;;;1.53;99.58;100862.41;4970489;28;19934;-63
2022/11/20 11:21:47;;;;;;;;;;;;;;;1.51;99.10;100859.09;4971341;28;19929;-60
2022/11/20 11:24:22;;;;;;;;;;;;;;;1.50;99.97;100855.53;4973067;28;20401;-63
2022/11/20 11:26:55;;;;;;;;;;;;;;;1.51;99.94;100859.09;4972853;28;20554;-62
2022/11/20 11:29:21;;;;;;;;;;;;;;;1.52;99.60;100856.13;4973241;28;19918;-60
2022/11/20 11:31:46;;;;;;;;;;;;;;;1.51;99.91;100857.19;4973229;28;19914;-62
2022/11/20 11:34:13;;;;;;;;;;;;;;;1.50;100.00;100858.25;4971477;28;20407;-61
2022/11/20 11:36:38;;;;;;;;;;;;;;;1.48;100.00;100857.69;4973334;28;19918;-62
2022/11/20 11:39:05;;;;;;;;;;;;;;;1.47;100.00;100858.75;4973102;28;19914;-62
2022/11/20 11:41:34;;;;;;;;;;;;;;;1.47;100.00;100855.22;4973427;28;19936;-63
2022/11/20 11:46:59;;;;;;;;;;;;;;;1.50;100.00;100843.81;4972648;28;19924;-64
2022/11/20 11:49:24;;;;;;;;;;;;;;;1.54;100.00;100848.53;4972628;28;19918;-64
2022/11/20 11:51:58;;;;;;;;;;;;;;;1.54;100.00;100839.50;4971308;28;19918;-62
2022/11/20 11:54:25;;;;;;;;;;;;;;;1.54;100.00;100845.81;4972677;28;19918;-62
2022/11/20 11:56:50;;;;;;;;;;;;;;;1.56;100.00;100834.66;4970819;28;19929;-62
2022/11/20 11:59:22;;;;;;;;;;;;;;;1.55;100.00;100838.44;4972156;28;20062;-62
2022/11/20 12:01:51;;;;;;;;;;;;;;;1.58;100.00;100829.78;4972488;28;19914;-62
2022/11/20 12:04:16;;;;;;;;;;;;;;;1.60;100.00;100819.47;4972501;28;19922;-61
2022/11/20 12:06:43;;;;;;;;;;;;;;;1.62;100.00;100805.56;4972263;28;19917;-61
2022/11/20 12:09:10;;;;;;;;;;;;;;;1.65;100.00;100794.16;4970849;28;19925;-63
2022/11/20 12:11:53;;;;;;;;;;;;;;;1.66;100.00;100788.47;4972568;28;20295;-64
2022/11/20 12:14:27;;;;;;;;;;;;;;;1.70;100.00;100775.97;4971926;28;19921;-63
2022/11/20 12:16:53;;;;;;;;;;;;;;;1.77;100.00;100764.88;4968904;28;19969;-62
2022/11/20 12:19:19;;;;;;;;;;;;;;;1.81;100.00;100746.13;4973044;28;19965;-63
2022/11/20 12:22:05;;;;;;;;;;;;;;;1.81;100.00;100746.97;4972772;28;20505;-62
2022/11/20 12:24:30;;;;;;;;;;;;;;;1.85;100.00;100747.28;4972982;28;19918;-63
2022/11/20 12:26:55;;;;;;;;;;;;;;;1.86;100.00;100746.22;4972896;28;19940;-63
2022/11/20 12:29:39;;;;;;;;;;;;;;;1.85;100.00;100736.38;4972786;28;19960;-62
2022/11/20 12:32:23;;;;;;;;;;;;;;;1.88;100.00;100724.97;4973150;28;19914;-62
2022/11/20 12:35:07;;;;;;;;;;;;;;;1.90;100.00;100720.06;4972272;28;19970;-63
2022/11/20 12:37:46;;;;;;;;;;;;;;;1.90;100.00;100719.25;4971824;28;19921;-62
2022/11/20 12:40:20;;;;;;;;;;;;;;;1.91;100.00;100719.00;4972194;28;20359;-62
2022/11/20 12:46:13;;;;;;;;;;;;;;;1.91;100.00;100716.25;4972457;28;20589;-62
2022/11/20 12:48:57;;;;;;;;;;;;;;;1.93;100.00;100705.94;4972580;28;20000;-62
2022/11/20 12:51:28;;;;;;;;;;;;;;;1.97;100.00;100700.78;4972902;28;19922;-62
2022/11/20 12:54:16;;;;;;;;;;;;;;;2.03;100.00;100697.88;4973386;28;19983;-61